sensor_id;sensor_type;location;lat;lon;timestamp;P1;durP1;ratioP1;P2;durP2;ratioP2
15246;SDS011;7726;48.820;9.248;2023-12-20T00:01:23;1.33;;;1.23;;
15246;SDS011;7726;48.820;9.248;2023-12-20T00:03:50;1.20;;;1.10;;
15246;SDS011;7726;48.820;9.248;2023-12-20T00:06:17;1.10;;;1.00;;
15246;SDS011;7726;48.820;9.248;2023-12-20T00:08:44;1.37;;;1.27;;
15246;SDS011;7726;48.820;9.248;2023-12-20T00:11:12;1.33;;;0.93;;
15246;SDS011;7726;48.820;9.248;2023-12-20T00:13:40;1.07;;;0.97;;
15246;SDS011;7726;48.820;9.248;2023-12-20T00:16:09;1.00;;;1.00;;
15246;SDS011;7726;48.820;9.248;2023-12-20T00:18:36;0.97;;;0.97;;
15246;SDS011;7726;48.820;9.248;2023-12-20T00:21:03;1.33;;;1.23;;
15246;SDS011;7726;48.820;9.248;2023-12-20T00:23:30;1.30;;;1.20;;
15246;SDS011;7726;48.820;9.248;2023-12-20T00:25:57;1.08;;;1.08;;
15246;SDS011;7726;48.820;9.248;2023-12-20T00:28:24;1.10;;;1.10;;
15246;SDS011;7726;48.820;9.248;2023-12-20T00:30:51;1.30;;;1.20;;
15246;SDS011;7726;48.820;9.248;2023-12-20T00:33:19;1.33;;;1.03;;
15246;SDS011;7726;48.820;9.248;2023-12-20T00:35:46;1.10;;;1.00;;
15246;SDS011;7726;48.820;9.248;2023-12-20T00:38:14;1.03;;;1.00;;
15246;SDS011;7726;48.820;9.248;2023-12-20T00:40:41;1.20;;;1.10;;
15246;SDS011;7726;48.820;9.248;2023-12-20T00:43:08;1.20;;;1.10;;
15246;SDS011;7726;48.820;9.248;2023-12-20T00:45:35;1.00;;;1.00;;
15246;SDS011;7726;48.820;9.248;2023-12-20T00:48:02;1.30;;;0.90;;
15246;SDS011;7726;48.820;9.248;2023-12-20T00:50:31;0.80;;;0.80;;
15246;SDS011;7726;48.820;9.248;2023-12-20T00:52:58;1.10;;;1.10;;
15246;SDS011;7726;48.820;9.248;2023-12-20T00:55:25;0.90;;;0.90;;
15246;SDS011;7726;48.820;9.248;2023-12-20T00:57:52;0.97;;;0.90;;
15246;SDS011;7726;48.820;9.248;2023-12-20T01:00:20;1.00;;;1.00;;
15246;SDS011;7726;48.820;9.248;2023-12-20T01:02:47;1.13;;;1.13;;
15246;SDS011;7726;48.820;9.248;2023-12-20T01:05:16;2.20;;;1.23;;
15246;SDS011;7726;48.820;9.248;2023-12-20T01:07:45;1.67;;;1.57;;
15246;SDS011;7726;48.820;9.248;2023-12-20T01:10:13;1.17;;;1.10;;
15246;SDS011;7726;48.820;9.248;2023-12-20T01:12:40;2.10;;;1.90;;
15246;SDS011;7726;48.820;9.248;2023-12-20T01:15:07;1.47;;;1.37;;
15246;SDS011;7726;48.820;9.248;2023-12-20T01:17:34;3.37;;;2.07;;
15246;SDS011;7726;48.820;9.248;2023-12-20T01:20:02;1.90;;;1.70;;
15246;SDS011;7726;48.820;9.248;2023-12-20T01:22:29;1.50;;;1.40;;
15246;SDS011;7726;48.820;9.248;2023-12-20T01:24:57;1.40;;;1.30;;
15246;SDS011;7726;48.820;9.248;2023-12-20T01:27:25;1.53;;;1.33;;
15246;SDS011;7726;48.820;9.248;2023-12-20T01:29:52;1.87;;;1.20;;
15246;SDS011;7726;48.820;9.248;2023-12-20T01:32:19;1.57;;;1.47;;
15246;SDS011;7726;48.820;9.248;2023-12-20T01:34:46;1.63;;;1.33;;
15246;SDS011;7726;48.820;9.248;2023-12-20T01:37:13;1.40;;;1.30;;
15246;SDS011;7726;48.820;9.248;2023-12-20T01:39:41;3.30;;;1.73;;
15246;SDS011;7726;48.820;9.248;2023-12-20T01:42:09;1.40;;;1.30;;
15246;SDS011;7726;48.820;9.248;2023-12-20T01:44:36;1.90;;;1.70;;
15246;SDS011;7726;48.820;9.248;2023-12-20T01:47:03;3.23;;;2.20;;
15246;SDS011;7726;48.820;9.248;2023-12-20T01:49:31;2.90;;;1.57;;
15246;SDS011;7726;48.820;9.248;2023-12-20T01:51:58;1.40;;;1.30;;
15246;SDS011;7726;48.820;9.248;2023-12-20T01:54:25;2.67;;;2.17;;
15246;SDS011;7726;48.820;9.248;2023-12-20T01:56:52;1.70;;;1.47;;
15246;SDS011;7726;48.820;9.248;2023-12-20T01:59:21;1.33;;;1.23;;
15246;SDS011;7726;48.820;9.248;2023-12-20T02:01:48;2.43;;;1.37;;
15246;SDS011;7726;48.820;9.248;2023-12-20T02:04:15;4.00;;;3.00;;
15246;SDS011;7726;48.820;9.248;2023-12-20T02:06:43;1.63;;;1.53;;
15246;SDS011;7726;48.820;9.248;2023-12-20T02:09:10;1.67;;;1.43;;
15246;SDS011;7726;48.820;9.248;2023-12-20T02:11:37;1.40;;;1.30;;
15246;SDS011;7726;48.820;9.248;2023-12-20T02:14:04;2.10;;;1.70;;
15246;SDS011;7726;48.820;9.248;2023-12-20T02:16:33;2.30;;;1.63;;
15246;SDS011;7726;48.820;9.248;2023-12-20T02:19:00;1.60;;;1.50;;
15246;SDS011;7726;48.820;9.248;2023-12-20T02:21:32;3.20;;;1.60;;
15246;SDS011;7726;48.820;9.248;2023-12-20T02:24:00;1.73;;;1.63;;
15246;SDS011;7726;48.820;9.248;2023-12-20T02:26:27;1.80;;;1.70;;
15246;SDS011;7726;48.820;9.248;2023-12-20T02:28:54;2.10;;;1.90;;
15246;SDS011;7726;48.820;9.248;2023-12-20T02:31:21;2.00;;;1.80;;
15246;SDS011;7726;48.820;9.248;2023-12-20T02:33:49;1.93;;;1.83;;
15246;SDS011;7726;48.820;9.248;2023-12-20T02:36:16;2.50;;;1.60;;
15246;SDS011;7726;48.820;9.248;2023-12-20T02:38:44;4.17;;;1.87;;
15246;SDS011;7726;48.820;9.248;2023-12-20T02:41:12;1.50;;;1.40;;
15246;SDS011;7726;48.820;9.248;2023-12-20T02:43:41;1.47;;;1.37;;
15246;SDS011;7726;48.820;9.248;2023-12-20T02:46:08;2.60;;;2.40;;
15246;SDS011;7726;48.820;9.248;2023-12-20T02:48:35;2.03;;;1.63;;
15246;SDS011;7726;48.820;9.248;2023-12-20T02:51:02;1.60;;;1.50;;
15246;SDS011;7726;48.820;9.248;2023-12-20T02:53:29;1.40;;;1.30;;
15246;SDS011;7726;48.820;9.248;2023-12-20T02:55:58;1.97;;;1.50;;
15246;SDS011;7726;48.820;9.248;2023-12-20T02:58:25;1.80;;;1.20;;
15246;SDS011;7726;48.820;9.248;2023-12-20T03:00:52;2.30;;;1.17;;
15246;SDS011;7726;48.820;9.248;2023-12-20T03:03:19;1.87;;;1.10;;
15246;SDS011;7726;48.820;9.248;2023-12-20T03:05:46;2.13;;;1.43;;
15246;SDS011;7726;48.820;9.248;2023-12-20T03:08:13;1.60;;;1.50;;
15246;SDS011;7726;48.820;9.248;2023-12-20T03:10:41;1.30;;;1.20;;
15246;SDS011;7726;48.820;9.248;2023-12-20T03:13:09;1.30;;;1.20;;
15246;SDS011;7726;48.820;9.248;2023-12-20T03:15:36;1.27;;;1.17;;
15246;SDS011;7726;48.820;9.248;2023-12-20T03:18:04;1.60;;;1.23;;
15246;SDS011;7726;48.820;9.248;2023-12-20T03:20:31;1.30;;;1.20;;
15246;SDS011;7726;48.820;9.248;2023-12-20T03:22:59;1.10;;;1.00;;
15246;SDS011;7726;48.820;9.248;2023-12-20T03:25:26;1.10;;;1.00;;
15246;SDS011;7726;48.820;9.248;2023-12-20T03:27:53;0.80;;;0.70;;
15246;SDS011;7726;48.820;9.248;2023-12-20T03:30:22;1.00;;;0.90;;
15246;SDS011;7726;48.820;9.248;2023-12-20T03:32:49;0.80;;;0.80;;
15246;SDS011;7726;48.820;9.248;2023-12-20T03:35:16;0.57;;;0.53;;
15246;SDS011;7726;48.820;9.248;2023-12-20T03:37:43;0.67;;;0.67;;
15246;SDS011;7726;48.820;9.248;2023-12-20T03:40:10;0.40;;;0.40;;
15246;SDS011;7726;48.820;9.248;2023-12-20T03:42:37;0.93;;;0.40;;
15246;SDS011;7726;48.820;9.248;2023-12-20T03:45:05;0.20;;;0.20;;
15246;SDS011;7726;48.820;9.248;2023-12-20T03:47:34;0.23;;;0.23;;
15246;SDS011;7726;48.820;9.248;2023-12-20T03:50:01;2.00;;;0.20;;
15246;SDS011;7726;48.820;9.248;2023-12-20T03:52:28;0.40;;;0.27;;
15246;SDS011;7726;48.820;9.248;2023-12-20T03:54:55;0.20;;;0.20;;
15246;SDS011;7726;48.820;9.248;2023-12-20T03:57:22;0.20;;;0.20;;
15246;SDS011;7726;48.820;9.248;2023-12-20T03:59:50;0.47;;;0.30;;
15246;SDS011;7726;48.820;9.248;2023-12-20T04:02:17;0.20;;;0.20;;
15246;SDS011;7726;48.820;9.248;2023-12-20T04:04:45;0.40;;;0.20;;
15246;SDS011;7726;48.820;9.248;2023-12-20T04:07:12;0.30;;;0.30;;
15246;SDS011;7726;48.820;9.248;2023-12-20T04:09:40;0.77;;;0.40;;
15246;SDS011;7726;48.820;9.248;2023-12-20T04:12:07;0.30;;;0.30;;
15246;SDS011;7726;48.820;9.248;2023-12-20T04:14:34;0.43;;;0.27;;
15246;SDS011;7726;48.820;9.248;2023-12-20T04:17:01;0.30;;;0.30;;
15246;SDS011;7726;48.820;9.248;2023-12-20T04:19:28;0.33;;;0.30;;
15246;SDS011;7726;48.820;9.248;2023-12-20T04:21:57;0.33;;;0.33;;
15246;SDS011;7726;48.820;9.248;2023-12-20T04:24:24;0.27;;;0.27;;
15246;SDS011;7726;48.820;9.248;2023-12-20T04:26:51;0.67;;;0.20;;
15246;SDS011;7726;48.820;9.248;2023-12-20T04:29:18;0.20;;;0.20;;
15246;SDS011;7726;48.820;9.248;2023-12-20T04:31:46;0.30;;;0.30;;
15246;SDS011;7726;48.820;9.248;2023-12-20T04:34:13;0.33;;;0.33;;
15246;SDS011;7726;48.820;9.248;2023-12-20T04:36:40;1.50;;;0.30;;
15246;SDS011;7726;48.820;9.248;2023-12-20T04:39:08;0.23;;;0.23;;
15246;SDS011;7726;48.820;9.248;2023-12-20T04:41:35;0.43;;;0.43;;
15246;SDS011;7726;48.820;9.248;2023-12-20T04:44:03;1.13;;;0.30;;
15246;SDS011;7726;48.820;9.248;2023-12-20T04:46:30;0.43;;;0.43;;
15246;SDS011;7726;48.820;9.248;2023-12-20T04:48:57;0.10;;;0.10;;
15246;SDS011;7726;48.820;9.248;2023-12-20T04:51:24;0.30;;;0.30;;
15246;SDS011;7726;48.820;9.248;2023-12-20T04:53:51;0.57;;;0.20;;
15246;SDS011;7726;48.820;9.248;2023-12-20T04:56:20;0.53;;;0.40;;
15246;SDS011;7726;48.820;9.248;2023-12-20T04:58:47;0.20;;;0.20;;
15246;SDS011;7726;48.820;9.248;2023-12-20T05:01:14;0.50;;;0.30;;
15246;SDS011;7726;48.820;9.248;2023-12-20T05:03:42;0.37;;;0.30;;
15246;SDS011;7726;48.820;9.248;2023-12-20T05:06:09;0.37;;;0.37;;
15246;SDS011;7726;48.820;9.248;2023-12-20T05:08:36;1.83;;;0.40;;
15246;SDS011;7726;48.820;9.248;2023-12-20T05:11:03;1.77;;;0.37;;
15246;SDS011;7726;48.820;9.248;2023-12-20T05:13:32;0.53;;;0.37;;
15246;SDS011;7726;48.820;9.248;2023-12-20T05:15:59;0.30;;;0.30;;
15246;SDS011;7726;48.820;9.248;2023-12-20T05:18:27;1.80;;;0.47;;
15246;SDS011;7726;48.820;9.248;2023-12-20T05:20:54;0.37;;;0.37;;
15246;SDS011;7726;48.820;9.248;2023-12-20T05:23:21;0.17;;;0.13;;
15246;SDS011;7726;48.820;9.248;2023-12-20T05:25:48;0.30;;;0.30;;
15246;SDS011;7726;48.820;9.248;2023-12-20T05:28:15;0.30;;;0.30;;
15246;SDS011;7726;48.820;9.248;2023-12-20T05:30:44;0.20;;;0.20;;
15246;SDS011;7726;48.820;9.248;2023-12-20T05:33:11;0.30;;;0.30;;
15246;SDS011;7726;48.820;9.248;2023-12-20T05:35:38;0.40;;;0.40;;
15246;SDS011;7726;48.820;9.248;2023-12-20T05:38:05;0.60;;;0.60;;
15246;SDS011;7726;48.820;9.248;2023-12-20T05:40:32;0.40;;;0.40;;
15246;SDS011;7726;48.820;9.248;2023-12-20T05:42:59;4.13;;;0.57;;
15246;SDS011;7726;48.820;9.248;2023-12-20T05:45:27;0.40;;;0.40;;
15246;SDS011;7726;48.820;9.248;2023-12-20T05:47:56;0.20;;;0.20;;
15246;SDS011;7726;48.820;9.248;2023-12-20T05:50:23;0.47;;;0.47;;
15246;SDS011;7726;48.820;9.248;2023-12-20T05:52:51;0.60;;;0.60;;
15246;SDS011;7726;48.820;9.248;2023-12-20T05:55:18;1.33;;;0.60;;
15246;SDS011;7726;48.820;9.248;2023-12-20T05:57:45;0.83;;;0.60;;
15246;SDS011;7726;48.820;9.248;2023-12-20T06:00:13;1.33;;;0.50;;
15246;SDS011;7726;48.820;9.248;2023-12-20T06:02:41;0.57;;;0.57;;
15246;SDS011;7726;48.820;9.248;2023-12-20T06:05:09;0.60;;;0.60;;
15246;SDS011;7726;48.820;9.248;2023-12-20T06:07:37;0.60;;;0.60;;
15246;SDS011;7726;48.820;9.248;2023-12-20T06:10:04;0.80;;;0.50;;
15246;SDS011;7726;48.820;9.248;2023-12-20T06:12:32;0.53;;;0.53;;
15246;SDS011;7726;48.820;9.248;2023-12-20T06:15:01;2.30;;;1.40;;
15246;SDS011;7726;48.820;9.248;2023-12-20T06:17:28;1.67;;;0.67;;
15246;SDS011;7726;48.820;9.248;2023-12-20T06:19:56;0.60;;;0.60;;
15246;SDS011;7726;48.820;9.248;2023-12-20T06:22:25;0.70;;;0.70;;
15246;SDS011;7726;48.820;9.248;2023-12-20T06:24:52;1.63;;;0.50;;
15246;SDS011;7726;48.820;9.248;2023-12-20T06:27:19;1.87;;;1.10;;
15246;SDS011;7726;48.820;9.248;2023-12-20T06:29:46;0.60;;;0.60;;
15246;SDS011;7726;48.820;9.248;2023-12-20T06:32:13;1.33;;;0.60;;
15246;SDS011;7726;48.820;9.248;2023-12-20T06:34:40;1.07;;;0.90;;
15246;SDS011;7726;48.820;9.248;2023-12-20T06:37:07;1.40;;;0.90;;
15246;SDS011;7726;48.820;9.248;2023-12-20T06:39:36;1.07;;;0.90;;
15246;SDS011;7726;48.820;9.248;2023-12-20T06:42:03;1.00;;;0.80;;
15246;SDS011;7726;48.820;9.248;2023-12-20T06:44:30;1.43;;;1.00;;
15246;SDS011;7726;48.820;9.248;2023-12-20T06:46:58;0.93;;;0.93;;
15246;SDS011;7726;48.820;9.248;2023-12-20T06:49:25;0.70;;;0.70;;
15246;SDS011;7726;48.820;9.248;2023-12-20T06:51:52;2.53;;;0.90;;
15246;SDS011;7726;48.820;9.248;2023-12-20T06:54:19;1.40;;;1.17;;
15246;SDS011;7726;48.820;9.248;2023-12-20T06:56:48;0.87;;;0.77;;
15246;SDS011;7726;48.820;9.248;2023-12-20T06:59:15;1.27;;;1.17;;
15246;SDS011;7726;48.820;9.248;2023-12-20T07:01:42;1.37;;;1.00;;
15246;SDS011;7726;48.820;9.248;2023-12-20T07:04:14;1.60;;;0.90;;
15246;SDS011;7726;48.820;9.248;2023-12-20T07:06:41;1.00;;;1.00;;
15246;SDS011;7726;48.820;9.248;2023-12-20T07:09:09;1.03;;;1.00;;
15246;SDS011;7726;48.820;9.248;2023-12-20T07:11:38;1.70;;;1.03;;
15246;SDS011;7726;48.820;9.248;2023-12-20T07:14:06;1.43;;;1.30;;
15246;SDS011;7726;48.820;9.248;2023-12-20T07:16:34;2.27;;;1.20;;
15246;SDS011;7726;48.820;9.248;2023-12-20T07:19:01;2.47;;;1.30;;
15246;SDS011;7726;48.820;9.248;2023-12-20T07:21:28;1.40;;;1.33;;
15246;SDS011;7726;48.820;9.248;2023-12-20T07:23:55;1.50;;;1.40;;
15246;SDS011;7726;48.820;9.248;2023-12-20T07:26:22;2.67;;;1.70;;
15246;SDS011;7726;48.820;9.248;2023-12-20T07:28:50;1.83;;;1.73;;
15246;SDS011;7726;48.820;9.248;2023-12-20T07:31:18;5.07;;;2.00;;
15246;SDS011;7726;48.820;9.248;2023-12-20T07:33:45;2.03;;;1.80;;
15246;SDS011;7726;48.820;9.248;2023-12-20T07:36:13;1.90;;;1.80;;
15246;SDS011;7726;48.820;9.248;2023-12-20T07:38:40;2.30;;;1.90;;
15246;SDS011;7726;48.820;9.248;2023-12-20T07:41:09;3.73;;;2.50;;
15246;SDS011;7726;48.820;9.248;2023-12-20T07:43:36;2.00;;;1.80;;
15246;SDS011;7726;48.820;9.248;2023-12-20T07:46:04;2.27;;;2.03;;
15246;SDS011;7726;48.820;9.248;2023-12-20T07:48:33;2.17;;;2.07;;
15246;SDS011;7726;48.820;9.248;2023-12-20T07:51:00;1.93;;;1.83;;
15246;SDS011;7726;48.820;9.248;2023-12-20T07:53:28;2.30;;;2.10;;
15246;SDS011;7726;48.820;9.248;2023-12-20T07:55:55;2.47;;;2.30;;
15246;SDS011;7726;48.820;9.248;2023-12-20T07:58:22;1.93;;;1.83;;
15246;SDS011;7726;48.820;9.248;2023-12-20T08:00:49;2.80;;;2.10;;
15246;SDS011;7726;48.820;9.248;2023-12-20T08:03:16;2.03;;;1.80;;
15246;SDS011;7726;48.820;9.248;2023-12-20T08:05:45;2.40;;;2.00;;
15246;SDS011;7726;48.820;9.248;2023-12-20T08:08:12;2.00;;;1.80;;
15246;SDS011;7726;48.820;9.248;2023-12-20T08:10:39;2.23;;;2.00;;
15246;SDS011;7726;48.820;9.248;2023-12-20T08:13:06;2.10;;;2.00;;
15246;SDS011;7726;48.820;9.248;2023-12-20T08:15:33;2.33;;;2.13;;
15246;SDS011;7726;48.820;9.248;2023-12-20T08:18:02;2.70;;;2.50;;
15246;SDS011;7726;48.820;9.248;2023-12-20T08:20:30;3.70;;;2.53;;
15246;SDS011;7726;48.820;9.248;2023-12-20T08:22:58;2.70;;;2.50;;
15246;SDS011;7726;48.820;9.248;2023-12-20T08:25:25;6.03;;;2.27;;
15246;SDS011;7726;48.820;9.248;2023-12-20T08:27:52;3.67;;;2.90;;
15246;SDS011;7726;48.820;9.248;2023-12-20T08:30:20;2.87;;;2.53;;
15246;SDS011;7726;48.820;9.248;2023-12-20T08:32:47;2.57;;;2.30;;
15246;SDS011;7726;48.820;9.248;2023-12-20T08:35:14;2.77;;;2.50;;
15246;SDS011;7726;48.820;9.248;2023-12-20T08:37:42;2.70;;;2.50;;
15246;SDS011;7726;48.820;9.248;2023-12-20T08:40:11;3.13;;;2.53;;
15246;SDS011;7726;48.820;9.248;2023-12-20T08:42:38;5.17;;;2.53;;
15246;SDS011;7726;48.820;9.248;2023-12-20T08:45:06;3.07;;;2.23;;
15246;SDS011;7726;48.820;9.248;2023-12-20T08:47:33;3.33;;;2.63;;
15246;SDS011;7726;48.820;9.248;2023-12-20T08:50:00;2.50;;;2.30;;
15246;SDS011;7726;48.820;9.248;2023-12-20T08:52:27;6.03;;;2.40;;
15246;SDS011;7726;48.820;9.248;2023-12-20T08:54:55;4.93;;;2.93;;
15246;SDS011;7726;48.820;9.248;2023-12-20T08:57:23;3.47;;;2.60;;
15246;SDS011;7726;48.820;9.248;2023-12-20T08:59:51;3.80;;;3.00;;
15246;SDS011;7726;48.820;9.248;2023-12-20T09:02:18;4.70;;;2.50;;
15246;SDS011;7726;48.820;9.248;2023-12-20T09:04:45;3.30;;;2.30;;
15246;SDS011;7726;48.820;9.248;2023-12-20T09:07:22;3.90;;;2.40;;
15246;SDS011;7726;48.820;9.248;2023-12-20T09:09:49;2.77;;;2.13;;
15246;SDS011;7726;48.820;9.248;2023-12-20T09:12:17;2.40;;;2.20;;
15246;SDS011;7726;48.820;9.248;2023-12-20T09:14:46;2.40;;;2.20;;
15246;SDS011;7726;48.820;9.248;2023-12-20T09:17:13;4.40;;;2.20;;
15246;SDS011;7726;48.820;9.248;2023-12-20T09:19:41;3.03;;;2.20;;
15246;SDS011;7726;48.820;9.248;2023-12-20T09:22:08;2.80;;;2.60;;
15246;SDS011;7726;48.820;9.248;2023-12-20T09:24:36;4.10;;;2.27;;
15246;SDS011;7726;48.820;9.248;2023-12-20T09:27:03;3.47;;;2.33;;
15246;SDS011;7726;48.820;9.248;2023-12-20T09:29:31;2.97;;;2.30;;
15246;SDS011;7726;48.820;9.248;2023-12-20T09:31:59;4.13;;;2.53;;
15246;SDS011;7726;48.820;9.248;2023-12-20T09:34:27;3.63;;;2.47;;
15246;SDS011;7726;48.820;9.248;2023-12-20T09:36:54;3.80;;;2.10;;
15246;SDS011;7726;48.820;9.248;2023-12-20T09:39:21;3.03;;;2.13;;
15246;SDS011;7726;48.820;9.248;2023-12-20T09:41:49;4.27;;;2.20;;
15246;SDS011;7726;48.820;9.248;2023-12-20T09:44:18;3.23;;;2.17;;
15246;SDS011;7726;48.820;9.248;2023-12-20T09:46:47;2.10;;;1.53;;
15246;SDS011;7726;48.820;9.248;2023-12-20T09:49:17;4.13;;;1.57;;
15246;SDS011;7726;48.820;9.248;2023-12-20T09:51:45;3.60;;;1.57;;
15246;SDS011;7726;48.820;9.248;2023-12-20T09:54:13;2.27;;;1.67;;
15246;SDS011;7726;48.820;9.248;2023-12-20T09:56:40;3.93;;;1.50;;
15246;SDS011;7726;48.820;9.248;2023-12-20T09:59:08;1.90;;;1.50;;
15246;SDS011;7726;48.820;9.248;2023-12-20T10:01:35;5.37;;;1.30;;
15246;SDS011;7726;48.820;9.248;2023-12-20T10:04:03;5.17;;;1.50;;
15246;SDS011;7726;48.820;9.248;2023-12-20T10:06:35;5.83;;;1.47;;
15246;SDS011;7726;48.820;9.248;2023-12-20T10:09:02;4.27;;;1.70;;
15246;SDS011;7726;48.820;9.248;2023-12-20T10:11:30;2.80;;;1.40;;
15246;SDS011;7726;48.820;9.248;2023-12-20T10:13:58;1.70;;;1.30;;
15246;SDS011;7726;48.820;9.248;2023-12-20T10:16:27;8.53;;;2.50;;
15246;SDS011;7726;48.820;9.248;2023-12-20T10:18:54;1.80;;;1.40;;
15246;SDS011;7726;48.820;9.248;2023-12-20T10:21:21;2.37;;;1.60;;
15246;SDS011;7726;48.820;9.248;2023-12-20T10:23:50;3.63;;;1.43;;
15246;SDS011;7726;48.820;9.248;2023-12-20T10:26:19;5.47;;;1.93;;
15246;SDS011;7726;48.820;9.248;2023-12-20T10:28:46;3.80;;;1.47;;
15246;SDS011;7726;48.820;9.248;2023-12-20T10:31:25;4.53;;;1.57;;
15246;SDS011;7726;48.820;9.248;2023-12-20T10:33:52;3.67;;;1.40;;
15246;SDS011;7726;48.820;9.248;2023-12-20T10:36:20;4.53;;;1.27;;
15246;SDS011;7726;48.820;9.248;2023-12-20T10:38:47;2.67;;;1.40;;
15246;SDS011;7726;48.820;9.248;2023-12-20T10:41:18;5.27;;;1.87;;
15246;SDS011;7726;48.820;9.248;2023-12-20T10:43:51;4.17;;;1.10;;
15246;SDS011;7726;48.820;9.248;2023-12-20T10:46:18;6.77;;;1.60;;
15246;SDS011;7726;48.820;9.248;2023-12-20T10:48:46;3.40;;;1.30;;
15246;SDS011;7726;48.820;9.248;2023-12-20T10:51:14;4.87;;;1.53;;
15246;SDS011;7726;48.820;9.248;2023-12-20T10:53:45;5.23;;;1.60;;
15246;SDS011;7726;48.820;9.248;2023-12-20T10:56:15;2.00;;;1.47;;
15246;SDS011;7726;48.820;9.248;2023-12-20T10:58:44;3.60;;;1.40;;
15246;SDS011;7726;48.820;9.248;2023-12-20T11:01:12;4.87;;;1.87;;
15246;SDS011;7726;48.820;9.248;2023-12-20T11:03:42;5.30;;;1.60;;
15246;SDS011;7726;48.820;9.248;2023-12-20T11:06:11;4.23;;;1.40;;
15246;SDS011;7726;48.820;9.248;2023-12-20T11:08:44;3.27;;;1.37;;
15246;SDS011;7726;48.820;9.248;2023-12-20T11:11:14;5.13;;;1.50;;
15246;SDS011;7726;48.820;9.248;2023-12-20T11:13:54;4.47;;;1.17;;
15246;SDS011;7726;48.820;9.248;2023-12-20T11:16:22;6.27;;;1.20;;
15246;SDS011;7726;48.820;9.248;2023-12-20T11:18:50;3.47;;;1.40;;
15246;SDS011;7726;48.820;9.248;2023-12-20T11:21:17;3.40;;;1.40;;
15246;SDS011;7726;48.820;9.248;2023-12-20T11:23:44;3.73;;;1.77;;
15246;SDS011;7726;48.820;9.248;2023-12-20T11:26:12;3.67;;;1.67;;
15246;SDS011;7726;48.820;9.248;2023-12-20T11:28:42;4.60;;;1.70;;
15246;SDS011;7726;48.820;9.248;2023-12-20T11:31:12;2.47;;;1.07;;
15246;SDS011;7726;48.820;9.248;2023-12-20T11:33:41;2.73;;;1.60;;
15246;SDS011;7726;48.820;9.248;2023-12-20T11:36:12;3.27;;;1.63;;
15246;SDS011;7726;48.820;9.248;2023-12-20T11:38:48;4.00;;;1.33;;
15246;SDS011;7726;48.820;9.248;2023-12-20T11:41:16;4.17;;;1.60;;
15246;SDS011;7726;48.820;9.248;2023-12-20T11:43:44;5.63;;;1.77;;
15246;SDS011;7726;48.820;9.248;2023-12-20T11:46:12;5.10;;;1.20;;
15246;SDS011;7726;48.820;9.248;2023-12-20T11:48:39;4.50;;;1.53;;
15246;SDS011;7726;48.820;9.248;2023-12-20T11:51:09;3.90;;;1.73;;
15246;SDS011;7726;48.820;9.248;2023-12-20T11:53:38;3.63;;;1.50;;
15246;SDS011;7726;48.820;9.248;2023-12-20T11:56:05;3.53;;;1.17;;
15246;SDS011;7726;48.820;9.248;2023-12-20T11:58:33;4.20;;;1.57;;
15246;SDS011;7726;48.820;9.248;2023-12-20T12:01:00;4.17;;;1.20;;
15246;SDS011;7726;48.820;9.248;2023-12-20T12:03:30;3.40;;;1.43;;
15246;SDS011;7726;48.820;9.248;2023-12-20T12:05:57;3.63;;;1.50;;
15246;SDS011;7726;48.820;9.248;2023-12-20T12:08:26;3.57;;;1.60;;
15246;SDS011;7726;48.820;9.248;2023-12-20T12:10:53;8.03;;;1.67;;
15246;SDS011;7726;48.820;9.248;2023-12-20T12:13:20;4.43;;;1.50;;
15246;SDS011;7726;48.820;9.248;2023-12-20T12:15:47;7.00;;;1.73;;
15246;SDS011;7726;48.820;9.248;2023-12-20T12:18:15;3.67;;;1.47;;
15246;SDS011;7726;48.820;9.248;2023-12-20T12:20:44;4.23;;;1.50;;
15246;SDS011;7726;48.820;9.248;2023-12-20T12:23:11;2.80;;;1.80;;
15246;SDS011;7726;48.820;9.248;2023-12-20T12:25:38;4.73;;;1.60;;
15246;SDS011;7726;48.820;9.248;2023-12-20T12:28:05;3.77;;;1.30;;
15246;SDS011;7726;48.820;9.248;2023-12-20T12:30:32;4.33;;;1.97;;
15246;SDS011;7726;48.820;9.248;2023-12-20T12:32:59;2.83;;;1.73;;
15246;SDS011;7726;48.820;9.248;2023-12-20T12:35:26;2.70;;;1.47;;
15246;SDS011;7726;48.820;9.248;2023-12-20T12:37:55;5.33;;;1.70;;
15246;SDS011;7726;48.820;9.248;2023-12-20T12:40:28;3.10;;;1.27;;
15246;SDS011;7726;48.820;9.248;2023-12-20T12:42:55;3.37;;;1.20;;
15246;SDS011;7726;48.820;9.248;2023-12-20T12:45:22;5.15;;;1.60;;
15246;SDS011;7726;48.820;9.248;2023-12-20T12:47:49;2.70;;;1.50;;
15246;SDS011;7726;48.820;9.248;2023-12-20T12:50:18;2.13;;;1.20;;
15246;SDS011;7726;48.820;9.248;2023-12-20T12:52:46;3.28;;;1.40;;
15246;SDS011;7726;48.820;9.248;2023-12-20T12:55:14;4.82;;;1.60;;
15246;SDS011;7726;48.820;9.248;2023-12-20T12:57:42;3.17;;;1.50;;
15246;SDS011;7726;48.820;9.248;2023-12-20T13:00:09;4.10;;;1.60;;
15246;SDS011;7726;48.820;9.248;2023-12-20T13:02:36;2.92;;;1.80;;
15246;SDS011;7726;48.820;9.248;2023-12-20T13:05:07;4.57;;;1.60;;
15246;SDS011;7726;48.820;9.248;2023-12-20T13:07:34;5.15;;;1.63;;
15246;SDS011;7726;48.820;9.248;2023-12-20T13:10:02;2.17;;;1.20;;
15246;SDS011;7726;48.820;9.248;2023-12-20T13:12:32;3.22;;;1.50;;
15246;SDS011;7726;48.820;9.248;2023-12-20T13:14:59;2.50;;;1.17;;
15246;SDS011;7726;48.820;9.248;2023-12-20T13:17:27;4.63;;;1.48;;
15246;SDS011;7726;48.820;9.248;2023-12-20T13:19:54;10.33;;;1.93;;
15246;SDS011;7726;48.820;9.248;2023-12-20T13:22:22;2.53;;;1.08;;
15246;SDS011;7726;48.820;9.248;2023-12-20T13:24:49;6.05;;;1.52;;
15246;SDS011;7726;48.820;9.248;2023-12-20T13:27:16;3.80;;;1.67;;
15246;SDS011;7726;48.820;9.248;2023-12-20T13:29:45;3.00;;;1.10;;
15246;SDS011;7726;48.820;9.248;2023-12-20T13:32:12;4.03;;;1.43;;
15246;SDS011;7726;48.820;9.248;2023-12-20T13:34:39;1.45;;;1.23;;
15246;SDS011;7726;48.820;9.248;2023-12-20T13:37:06;2.33;;;1.05;;
15246;SDS011;7726;48.820;9.248;2023-12-20T13:39:34;4.35;;;1.50;;
15246;SDS011;7726;48.820;9.248;2023-12-20T13:42:01;3.60;;;1.10;;
15246;SDS011;7726;48.820;9.248;2023-12-20T13:44:28;3.23;;;1.50;;
15246;SDS011;7726;48.820;9.248;2023-12-20T13:46:57;4.80;;;1.33;;
15246;SDS011;7726;48.820;9.248;2023-12-20T13:49:24;4.15;;;1.48;;
15246;SDS011;7726;48.820;9.248;2023-12-20T13:51:53;2.37;;;1.33;;
15246;SDS011;7726;48.820;9.248;2023-12-20T13:54:20;4.97;;;1.40;;
15246;SDS011;7726;48.820;9.248;2023-12-20T13:56:47;3.93;;;1.30;;
15246;SDS011;7726;48.820;9.248;2023-12-20T13:59:14;3.67;;;1.50;;
15246;SDS011;7726;48.820;9.248;2023-12-20T14:01:41;3.97;;;1.40;;
15246;SDS011;7726;48.820;9.248;2023-12-20T14:04:09;4.65;;;1.83;;
15246;SDS011;7726;48.820;9.248;2023-12-20T14:06:37;3.07;;;1.30;;
15246;SDS011;7726;48.820;9.248;2023-12-20T14:09:04;2.50;;;1.27;;
15246;SDS011;7726;48.820;9.248;2023-12-20T14:11:31;3.70;;;1.63;;
15246;SDS011;7726;48.820;9.248;2023-12-20T14:13:58;6.65;;;1.98;;
15246;SDS011;7726;48.820;9.248;2023-12-20T14:16:27;3.97;;;1.60;;
15246;SDS011;7726;48.820;9.248;2023-12-20T14:18:54;6.30;;;1.33;;
15246;SDS011;7726;48.820;9.248;2023-12-20T14:21:24;6.00;;;1.40;;
15246;SDS011;7726;48.820;9.248;2023-12-20T14:23:51;2.80;;;1.53;;
15246;SDS011;7726;48.820;9.248;2023-12-20T14:26:18;5.83;;;1.60;;
15246;SDS011;7726;48.820;9.248;2023-12-20T14:28:45;2.97;;;1.50;;
15246;SDS011;7726;48.820;9.248;2023-12-20T14:31:14;3.97;;;1.37;;
15246;SDS011;7726;48.820;9.248;2023-12-20T14:33:41;2.80;;;1.20;;
15246;SDS011;7726;48.820;9.248;2023-12-20T14:36:08;2.67;;;1.43;;
15246;SDS011;7726;48.820;9.248;2023-12-20T14:38:37;4.03;;;1.73;;
15246;SDS011;7726;48.820;9.248;2023-12-20T14:41:04;5.83;;;1.90;;
15246;SDS011;7726;48.820;9.248;2023-12-20T14:43:33;3.33;;;1.27;;
15246;SDS011;7726;48.820;9.248;2023-12-20T14:46:01;4.23;;;1.27;;
15246;SDS011;7726;48.820;9.248;2023-12-20T14:48:28;3.63;;;1.60;;
15246;SDS011;7726;48.820;9.248;2023-12-20T14:50:55;6.23;;;1.30;;
15246;SDS011;7726;48.820;9.248;2023-12-20T14:53:22;3.60;;;1.37;;
15246;SDS011;7726;48.820;9.248;2023-12-20T14:55:51;3.03;;;1.30;;
15246;SDS011;7726;48.820;9.248;2023-12-20T14:58:18;3.07;;;1.70;;
15246;SDS011;7726;48.820;9.248;2023-12-20T15:00:45;3.00;;;1.63;;
15246;SDS011;7726;48.820;9.248;2023-12-20T15:03:13;2.08;;;1.13;;